Hartsfield Jackson Atlanta International Airport
KATL : now visible

Airfield :











YOU CAN JOIN US ON...

 
LOGIN :

Register | Disclaimer

   EN    FR    IT 

 









Legend :    VFR   Marginal VFR   IFR   Intensive IFR   Very Intensive IFR
Visi :
Ceiling :
>= 8 km
>= 3000ft
5 to 8 km
1000 to 3000 ft
1500m to 5 km
500 to 1000 ft
800 to 1500m
200 to 500 ft
< 800m
< 200 ft
Symbols :   Thunderstorms  Fog  Heavy snow  Heavy precipitations  Wind > 20 kt






- Airport Elevation : 1026 ft
- IATA code : ATL


KATL - Hartsfield Jackson Atlanta International

CURRENT METAR :
  • 071952Z 24011G17KT 10SM FEW036 SCT085 BKN110 OVC160 24/13 A3003 RMK AO2 SLP162 VIRGA OHD-ALQDS CB DSNT NE ACC OHD-SE-SW-W T02390133

EXPIRED METARs :
  • 071852Z 23011KT 10SM FEW036 BKN130 OVC180 24/14 A3004 RMK AO2 SLP166 VIRGA OHD-ALQDS CB DSNT N NE ACC NE T02390144
  • 071752Z 24009KT 10SM FEW036TCU SCT120 BKN180 BKN250 25/16 A3005 RMK AO2 SLP167 VIRGA NW-N TCU NW-NE T02500161 10256 20189 58014

TAF KATL
Valid from the 07 at 20:00 until the 09 at 00:00 UTC


071940Z 0720/0824 25011G17KT P6SM VCSH BKN060
TEMPO 0720/0724 6SM SHRA SCT030 BKN050
FM080000 23007KT P6SM VCSH BKN040
FM080700 24005KT P6SM VCSH BKN010
FM080900 27007KT P6SM VCSH OVC007
PROB30 0810/0813 -SHRA
FM081500 28009KT P6SM VCSH BKN020
FM081800 28011KT P6SM SCT040



MET'MAP, your aeronautical weather chart ! - Copyright ORBIFLY December 2007 - Disclaimer

ORBIFLY MET'MAP TEAM :

Programming & Development : Alexandra Zaïnal
Concept & original design : Baudouin d'Aumeries
Assistance for programming : Marc-Olivier Méhu
Technical & hardware support : Manuel Goepfert

Contact : metmap@orbifly.com




SOURCES & CREDITS :

   NOAA       Earth
Advisory